createdAt,value
2023-04-29T00:01:09.838Z,1.80
2023-04-29T00:03:37.123Z,1.58
2023-04-29T00:06:04.457Z,1.58
2023-04-29T00:08:31.589Z,1.80
2023-04-29T00:10:58.744Z,1.73
2023-04-29T00:13:26.135Z,1.80
2023-04-29T00:15:53.312Z,1.70
2023-04-29T00:18:20.518Z,1.88
2023-04-29T00:20:47.593Z,1.55
2023-04-29T00:23:14.720Z,1.63
2023-04-29T00:25:41.853Z,1.88
2023-04-29T00:28:08.949Z,1.52
2023-04-29T00:30:37.119Z,1.77
2023-04-29T00:33:04.314Z,1.75
2023-04-29T00:35:31.512Z,1.98
2023-04-29T00:37:58.613Z,1.92
2023-04-29T00:40:25.790Z,1.63
2023-04-29T00:42:52.872Z,1.40
2023-04-29T00:45:19.973Z,2.17
2023-04-29T00:47:47.439Z,1.63
2023-04-29T00:50:14.740Z,1.98
2023-04-29T00:52:42.582Z,1.58
2023-04-29T00:55:09.874Z,1.73
2023-04-29T00:57:37.016Z,1.70
2023-04-29T01:00:05.550Z,1.73
2023-04-29T01:02:32.802Z,2.40
2023-04-29T01:04:59.978Z,1.48
2023-04-29T01:07:45.865Z,1.60
2023-04-29T01:10:19.599Z,1.60
2023-04-29T01:12:47.575Z,1.80
2023-04-29T01:15:17.657Z,1.33
2023-04-29T01:18:05.338Z,1.77
2023-04-29T01:20:33.466Z,1.70
2023-04-29T01:23:00.605Z,1.80
2023-04-29T01:25:27.795Z,1.73
2023-04-29T01:28:30.487Z,1.80
2023-04-29T01:31:01.301Z,2.30
2023-04-29T01:33:41.567Z,1.90
2023-04-29T01:36:17.794Z,1.90
2023-04-29T01:38:47.731Z,2.83
2023-04-29T01:41:33.395Z,1.98
2023-04-29T01:44:02.121Z,2.40
2023-04-29T01:46:29.397Z,1.90
2023-04-29T01:48:56.684Z,2.28
2023-04-29T01:51:23.754Z,2.10
2023-04-29T01:53:50.860Z,2.13
2023-04-29T01:56:18.014Z,2.00
2023-04-29T01:58:45.155Z,2.20
2023-04-29T02:01:12.777Z,2.20
2023-04-29T02:03:40.151Z,1.92
2023-04-29T02:06:07.446Z,2.08
2023-04-29T02:08:34.597Z,2.25
2023-04-29T02:11:01.779Z,2.22
2023-04-29T02:13:28.939Z,1.63
2023-04-29T02:15:56.086Z,1.65
2023-04-29T02:18:23.220Z,2.13
2023-04-29T02:20:51.029Z,2.03
2023-04-29T02:23:18.337Z,2.47
2023-04-29T02:25:45.493Z,1.90
2023-04-29T02:28:12.639Z,1.80
2023-04-29T02:30:40.343Z,2.17
2023-04-29T02:33:08.766Z,2.08
2023-04-29T02:35:36.238Z,2.60
2023-04-29T02:38:03.384Z,2.10
2023-04-29T02:40:30.544Z,2.13
2023-04-29T02:42:57.627Z,2.05
2023-04-29T02:45:24.736Z,2.83
2023-04-29T02:47:52.163Z,1.95
2023-04-29T02:50:19.327Z,1.77
2023-04-29T02:52:46.599Z,1.83
2023-04-29T02:55:14.272Z,2.08
2023-04-29T02:57:41.378Z,2.70
2023-04-29T03:00:09.056Z,2.78
2023-04-29T03:02:36.485Z,1.90
2023-04-29T03:05:04.566Z,2.40
2023-04-29T03:07:32.184Z,2.08
2023-04-29T03:09:59.528Z,2.38
2023-04-29T03:12:26.647Z,2.13
2023-04-29T03:14:53.766Z,1.85
2023-04-29T03:17:21.213Z,2.17
2023-04-29T03:19:48.461Z,2.53
2023-04-29T03:22:15.595Z,2.03
2023-04-29T03:24:42.758Z,2.10
2023-04-29T03:27:09.831Z,2.47
2023-04-29T03:29:36.926Z,1.77
2023-04-29T03:32:04.081Z,1.73
2023-04-29T03:34:31.388Z,1.83
2023-04-29T03:36:58.997Z,2.20
2023-04-29T03:39:28.253Z,1.77
2023-04-29T03:41:55.459Z,1.77
2023-04-29T03:44:22.728Z,1.60
2023-04-29T03:46:50.215Z,1.60
2023-04-29T03:49:17.356Z,1.55
2023-04-29T03:51:47.647Z,1.90
2023-04-29T03:54:14.785Z,1.60
2023-04-29T03:56:41.911Z,1.40
2023-04-29T03:59:09.002Z,1.38
2023-04-29T04:01:36.643Z,1.60
2023-04-29T04:04:04.020Z,1.63
2023-04-29T04:06:31.847Z,1.80
2023-04-29T04:08:59.040Z,1.58
2023-04-29T04:11:26.120Z,1.98
2023-04-29T04:13:53.583Z,1.40
2023-04-29T04:16:20.830Z,1.50
2023-04-29T04:18:47.951Z,1.88
2023-04-29T04:21:15.021Z,1.58
2023-04-29T04:23:42.672Z,1.73
2023-04-29T04:26:09.786Z,1.65
2023-04-29T04:28:36.924Z,1.52
2023-04-29T04:31:05.692Z,1.65
2023-04-29T04:33:33.052Z,1.88
2023-04-29T04:36:00.179Z,1.73
2023-04-29T04:38:28.161Z,1.73
2023-04-29T04:40:55.394Z,1.60
2023-04-29T04:43:22.865Z,1.60
2023-04-29T04:45:50.004Z,1.60
2023-04-29T04:48:17.130Z,1.80
2023-04-29T04:50:44.229Z,2.30
2023-04-29T04:53:11.506Z,1.80
2023-04-29T04:55:38.608Z,1.90
2023-04-29T04:58:05.704Z,1.45
2023-04-29T05:00:33.091Z,1.73
2023-04-29T05:03:00.553Z,1.23
2023-04-29T05:05:27.998Z,1.67
2023-04-29T05:07:55.149Z,1.40
2023-04-29T05:10:26.415Z,1.42
2023-04-29T05:15:20.694Z,1.40
2023-04-29T05:17:47.841Z,1.50
2023-04-29T05:20:15.016Z,2.20
2023-04-29T05:22:42.322Z,1.95
2023-04-29T05:25:09.627Z,1.83
2023-04-29T05:27:36.739Z,1.92
2023-04-29T05:30:04.112Z,1.35
2023-04-29T05:32:31.707Z,1.10
2023-04-29T05:34:58.836Z,1.30
2023-04-29T05:37:30.825Z,1.20
2023-04-29T05:39:58.329Z,1.33
2023-04-29T05:42:26.300Z,1.30
2023-04-29T05:44:53.467Z,1.55
2023-04-29T05:47:20.590Z,1.67
2023-04-29T05:49:47.940Z,1.85
2023-04-29T05:52:14.705Z,1.25
2023-04-29T05:54:41.730Z,2.10
2023-04-29T05:57:08.639Z,1.92
2023-04-29T05:59:35.931Z,1.42
2023-04-29T06:02:03.048Z,1.50
2023-04-29T06:04:29.889Z,1.58
2023-04-29T06:06:57.401Z,1.60
2023-04-29T06:09:28.025Z,1.65
2023-04-29T06:11:55.149Z,2.28
2023-04-29T06:14:22.183Z,1.50
2023-04-29T06:16:49.530Z,1.85
2023-04-29T06:19:16.360Z,1.85
2023-04-29T06:21:43.136Z,1.83
2023-04-29T06:24:09.804Z,1.70
2023-04-29T06:26:36.686Z,1.85
2023-04-29T06:29:03.506Z,1.75
2023-04-29T06:31:30.266Z,1.67
2023-04-29T06:33:56.964Z,1.80
2023-04-29T06:36:24.150Z,2.00
2023-04-29T06:38:51.230Z,1.13
2023-04-29T06:41:18.333Z,1.40
2023-04-29T06:43:47.354Z,1.80
2023-04-29T06:46:16.315Z,1.52
2023-04-29T06:48:43.570Z,1.42
2023-04-29T06:51:11.212Z,1.30
2023-04-29T06:53:38.273Z,1.42
2023-04-29T06:56:06.092Z,1.70
2023-04-29T06:58:33.286Z,1.35
2023-04-29T07:01:00.579Z,1.58
2023-04-29T07:03:27.860Z,1.30
2023-04-29T07:05:55.189Z,1.48
2023-04-29T07:08:23.153Z,1.40
2023-04-29T07:10:56.641Z,1.42
2023-04-29T07:13:23.852Z,1.45
2023-04-29T07:15:51.017Z,1.45
2023-04-29T07:18:18.178Z,1.58
2023-04-29T07:20:46.076Z,1.45
2023-04-29T07:23:13.296Z,1.42
2023-04-29T07:25:40.948Z,1.30
2023-04-29T07:28:11.211Z,1.27
2023-04-29T07:30:41.645Z,1.50
2023-04-29T07:33:09.456Z,1.42
2023-04-29T07:35:36.569Z,1.58
2023-04-29T07:38:03.720Z,1.67
2023-04-29T07:40:30.972Z,1.40
2023-04-29T07:42:58.111Z,1.23
2023-04-29T07:45:25.410Z,1.33
2023-04-29T07:47:52.605Z,1.42
2023-04-29T07:50:19.876Z,1.40
2023-04-29T07:52:47.043Z,1.00
2023-04-29T07:55:14.216Z,1.48
2023-04-29T07:57:41.285Z,1.17
2023-04-29T08:00:08.890Z,1.27
2023-04-29T08:02:36.189Z,1.40
2023-04-29T08:05:04.138Z,1.77
2023-04-29T08:07:31.812Z,1.38
2023-04-29T08:09:58.980Z,1.17
2023-04-29T08:12:26.099Z,1.45
2023-04-29T08:14:53.417Z,1.15
2023-04-29T08:17:20.782Z,1.35
2023-04-29T08:19:47.997Z,1.30
2023-04-29T08:22:15.663Z,1.65
2023-04-29T08:24:42.891Z,1.30
2023-04-29T08:27:10.092Z,1.58
2023-04-29T08:29:37.307Z,1.10
2023-04-29T08:32:04.532Z,1.27
2023-04-29T08:34:33.489Z,1.25
2023-04-29T08:37:00.773Z,1.00
2023-04-29T08:39:29.334Z,1.20
2023-04-29T08:41:57.499Z,1.50
2023-04-29T08:44:26.595Z,1.10
2023-04-29T08:46:53.801Z,1.08
2023-04-29T08:49:20.930Z,1.13
2023-04-29T08:51:53.795Z,1.15
2023-04-29T08:54:20.979Z,1.20
2023-04-29T08:56:48.631Z,1.08
2023-04-29T08:59:16.567Z,1.17
2023-04-29T09:01:44.796Z,1.00
2023-04-29T09:04:27.426Z,1.08
2023-04-29T09:06:56.988Z,1.10
2023-04-29T09:09:25.222Z,1.00
2023-04-29T09:11:52.691Z,1.65
2023-04-29T09:14:20.096Z,0.95
2023-04-29T09:16:47.935Z,1.30
2023-04-29T09:19:34.361Z,1.33
2023-04-29T09:22:02.578Z,0.80
2023-04-29T09:24:30.747Z,1.00
2023-04-29T09:26:58.835Z,1.20
2023-04-29T09:29:25.956Z,1.20
2023-04-29T09:31:53.649Z,1.20
2023-04-29T09:34:41.463Z,0.90
2023-04-29T09:37:26.091Z,0.88
2023-04-29T09:39:53.258Z,1.02
2023-04-29T09:42:20.488Z,1.40
2023-04-29T09:44:47.810Z,1.00
2023-04-29T09:47:15.000Z,1.17
2023-04-29T09:49:45.426Z,1.42
2023-04-29T09:52:20.779Z,1.20
2023-04-29T09:54:47.924Z,1.00
2023-04-29T09:57:15.781Z,1.08
2023-04-29T09:59:43.609Z,1.38
2023-04-29T10:02:15.718Z,1.25
2023-04-29T10:04:43.192Z,1.25
2023-04-29T10:07:14.658Z,0.80
2023-04-29T10:09:41.825Z,1.50
2023-04-29T10:12:09.117Z,1.33
2023-04-29T10:14:40.084Z,1.38
2023-04-29T10:17:12.316Z,1.50
2023-04-29T10:19:54.379Z,1.00
2023-04-29T10:22:26.072Z,1.25
2023-04-29T10:24:54.308Z,1.35
2023-04-29T10:27:24.903Z,1.20
2023-04-29T10:29:53.620Z,1.52
2023-04-29T10:32:23.906Z,1.23
2023-04-29T10:34:53.007Z,2.08
2023-04-29T10:37:20.483Z,1.38
2023-04-29T10:39:52.016Z,1.27
2023-04-29T10:42:37.619Z,1.27
2023-04-29T10:45:18.916Z,1.00
2023-04-29T10:48:08.876Z,0.93
2023-04-29T10:50:42.422Z,1.25
2023-04-29T10:53:09.544Z,1.40
2023-04-29T10:55:37.734Z,1.23
2023-04-29T10:58:05.987Z,1.80
2023-04-29T11:00:34.108Z,1.05
2023-04-29T11:03:02.366Z,1.30
2023-04-29T11:05:34.019Z,1.10
2023-04-29T11:08:24.369Z,1.15
2023-04-29T11:10:54.979Z,1.30
2023-04-29T11:13:26.170Z,1.45
2023-04-29T11:18:20.881Z,1.45
2023-04-29T11:21:06.638Z,1.20
2023-04-29T11:23:37.104Z,1.08
2023-04-29T11:26:04.427Z,1.40
2023-04-29T11:28:32.127Z,1.20
2023-04-29T11:31:00.421Z,1.13
2023-04-29T11:33:28.487Z,1.65
2023-04-29T11:35:56.411Z,1.23
2023-04-29T11:38:27.158Z,1.80
2023-04-29T11:40:56.156Z,1.63
2023-04-29T11:43:24.072Z,1.42
2023-04-29T11:45:51.858Z,1.02
2023-04-29T11:48:22.630Z,1.13
2023-04-29T11:50:50.945Z,1.10
2023-04-29T11:53:20.912Z,1.42
2023-04-29T11:55:48.298Z,1.05
2023-04-29T11:58:16.632Z,1.30
2023-04-29T12:00:44.800Z,1.50
2023-04-29T12:03:19.274Z,2.30
2023-04-29T12:05:51.524Z,1.85
2023-04-29T12:08:22.302Z,1.77
2023-04-29T12:10:49.820Z,1.70
2023-04-29T12:13:20.548Z,1.15
2023-04-29T12:15:48.778Z,1.35
2023-04-29T12:18:15.980Z,1.50
2023-04-29T12:20:43.202Z,1.23
2023-04-29T12:23:13.733Z,1.40
2023-04-29T12:25:41.356Z,1.30
2023-04-29T12:28:14.615Z,1.33
2023-04-29T12:30:42.021Z,1.42
2023-04-29T12:33:12.461Z,1.25
2023-04-29T12:35:39.595Z,1.00
2023-04-29T12:38:06.975Z,1.67
2023-04-29T12:40:34.094Z,1.00
2023-04-29T12:43:08.478Z,1.40
2023-04-29T12:45:36.291Z,1.60
2023-04-29T12:48:07.408Z,1.27
2023-04-29T12:50:38.058Z,1.15
2023-04-29T12:53:06.536Z,1.35
2023-04-29T12:55:34.926Z,1.10
2023-04-29T12:58:03.531Z,1.35
2023-04-29T13:00:31.041Z,1.20
2023-04-29T13:02:58.484Z,1.58
2023-04-29T13:05:26.020Z,1.20
2023-04-29T13:07:53.094Z,1.25
2023-04-29T13:10:20.205Z,1.20
2023-04-29T13:12:47.841Z,1.42
2023-04-29T13:15:15.724Z,1.75
2023-04-29T13:17:42.998Z,1.50
2023-04-29T13:20:11.786Z,1.38
2023-04-29T13:22:39.015Z,1.30
2023-04-29T13:25:06.369Z,1.58
2023-04-29T13:27:33.562Z,1.02
2023-04-29T13:30:00.958Z,1.40
2023-04-29T13:32:41.877Z,1.52
2023-04-29T13:35:12.246Z,1.17
2023-04-29T13:37:39.410Z,1.38
2023-04-29T13:40:08.183Z,1.30
2023-04-29T13:42:42.294Z,1.20
2023-04-29T13:45:16.293Z,1.00
2023-04-29T13:48:03.070Z,1.30
2023-04-29T13:53:33.041Z,1.00
2023-04-29T14:01:11.146Z,1.05
2023-04-29T14:03:36.268Z,1.10
2023-04-29T14:06:03.697Z,1.23
2023-04-29T14:08:30.953Z,1.10
2023-04-29T14:10:58.413Z,1.15
2023-04-29T14:13:25.496Z,2.17
2023-04-29T14:15:52.724Z,1.77
2023-04-29T14:18:19.823Z,1.25
2023-04-29T14:20:47.020Z,0.98
2023-04-29T14:23:14.084Z,1.17
2023-04-29T14:25:41.220Z,1.00
2023-04-29T14:28:08.668Z,0.90
2023-04-29T14:30:35.764Z,1.15
2023-04-29T14:33:03.157Z,1.17
2023-04-29T14:35:31.014Z,1.30
2023-04-29T14:37:58.171Z,1.02
2023-04-29T14:40:25.718Z,1.08
2023-04-29T14:42:52.877Z,1.13
2023-04-29T14:45:20.029Z,1.00
2023-04-29T14:47:47.234Z,1.05
2023-04-29T14:50:14.426Z,1.00
2023-04-29T14:52:41.646Z,1.13
2023-04-29T14:55:09.576Z,1.20
2023-04-29T14:57:36.693Z,1.00
2023-04-29T15:00:03.931Z,0.93
2023-04-29T15:02:31.166Z,0.80
2023-04-29T15:04:58.624Z,1.20
2023-04-29T15:07:25.890Z,1.10
2023-04-29T15:09:53.017Z,0.90
2023-04-29T15:12:21.102Z,0.90
2023-04-29T15:14:48.238Z,0.80
2023-04-29T15:17:15.605Z,1.02
2023-04-29T15:19:42.693Z,1.20
2023-04-29T15:22:10.095Z,1.00
2023-04-29T15:24:37.466Z,0.75
2023-04-29T15:27:04.688Z,0.88
2023-04-29T15:29:34.375Z,0.85
2023-04-29T15:32:01.839Z,0.90
2023-04-29T15:34:28.978Z,0.90
2023-04-29T15:36:56.346Z,1.02
2023-04-29T15:39:23.619Z,0.82
2023-04-29T15:41:50.789Z,1.13
2023-04-29T15:44:18.006Z,1.10
2023-04-29T15:46:45.181Z,0.88
2023-04-29T15:49:12.357Z,1.42
2023-04-29T15:51:39.566Z,1.10
2023-04-29T15:54:07.852Z,1.20
2023-04-29T15:56:35.011Z,1.30
2023-04-29T15:59:02.212Z,1.50
2023-04-29T16:01:29.405Z,1.45
2023-04-29T16:03:56.596Z,1.20
2023-04-29T16:06:23.822Z,0.88
2023-04-29T16:08:50.957Z,1.20
2023-04-29T16:11:18.038Z,1.20
2023-04-29T16:13:45.179Z,1.17
2023-04-29T16:16:12.925Z,0.90
2023-04-29T16:18:40.099Z,1.25
2023-04-29T16:21:07.194Z,1.35
2023-04-29T16:23:34.367Z,1.13
2023-04-29T16:26:01.804Z,1.00
2023-04-29T16:28:28.870Z,1.27
2023-04-29T16:30:56.072Z,1.25
2023-04-29T16:33:23.164Z,1.00
2023-04-29T16:35:50.271Z,1.08
2023-04-29T16:38:17.779Z,1.08
2023-04-29T16:40:45.008Z,1.00
2023-04-29T16:43:14.446Z,1.23
2023-04-29T16:45:42.114Z,1.23
2023-04-29T16:48:09.473Z,0.90
2023-04-29T16:50:37.679Z,1.15
2023-04-29T16:53:05.704Z,1.00
2023-04-29T16:55:32.935Z,0.90
2023-04-29T16:58:00.109Z,0.70
2023-04-29T17:00:27.660Z,1.05
2023-04-29T17:02:58.415Z,0.98
2023-04-29T17:05:27.497Z,1.10
2023-04-29T17:07:55.379Z,1.17
2023-04-29T17:10:22.552Z,1.08
2023-04-29T17:12:49.684Z,1.10
2023-04-29T17:15:16.890Z,1.13
2023-04-29T17:17:44.428Z,0.90
2023-04-29T17:20:11.823Z,0.98
2023-04-29T17:22:40.114Z,1.17
2023-04-29T17:25:10.526Z,1.00
2023-04-29T17:27:37.746Z,1.00
2023-04-29T17:30:06.239Z,1.30
2023-04-29T17:32:38.933Z,1.40
2023-04-29T17:35:07.421Z,1.30
2023-04-29T17:37:34.539Z,1.42
2023-04-29T17:40:01.665Z,1.20
2023-04-29T17:42:28.900Z,1.50
2023-04-29T17:44:56.203Z,1.60
2023-04-29T17:47:23.403Z,1.38
2023-04-29T17:49:52.067Z,1.55
2023-04-29T17:52:21.366Z,1.52
2023-04-29T17:54:48.845Z,2.08
2023-04-29T17:57:16.035Z,1.65
2023-04-29T17:59:43.153Z,1.67
2023-04-29T18:02:10.250Z,1.38
2023-04-29T18:04:37.696Z,1.33
2023-04-29T18:07:04.758Z,2.00
2023-04-29T18:09:32.041Z,1.52
2023-04-29T18:11:59.178Z,1.70
2023-04-29T18:14:29.012Z,1.30
2023-04-29T18:16:56.300Z,1.40
2023-04-29T18:19:23.648Z,1.67
2023-04-29T18:21:50.824Z,1.70
2023-04-29T18:24:17.952Z,1.83
2023-04-29T18:26:45.051Z,1.77
2023-04-29T18:29:12.147Z,2.17
2023-04-29T18:31:39.242Z,1.98
2023-04-29T18:34:07.430Z,1.75
2023-04-29T18:36:34.501Z,1.70
2023-04-29T18:39:01.566Z,2.67
2023-04-29T18:41:28.759Z,1.88
2023-04-29T18:43:56.186Z,2.38
2023-04-29T18:46:23.434Z,2.30
2023-04-29T18:48:50.871Z,2.90
2023-04-29T18:51:18.071Z,2.22
2023-04-29T18:53:45.153Z,2.38
2023-04-29T18:56:12.358Z,2.42
2023-04-29T18:58:39.453Z,2.42
2023-04-29T19:01:06.722Z,2.03
2023-04-29T19:03:33.908Z,2.25
2023-04-29T19:06:01.026Z,2.83
2023-04-29T19:08:28.124Z,2.10
2023-04-29T19:10:55.294Z,2.35
2023-04-29T19:13:22.431Z,2.10
2023-04-29T19:15:54.851Z,2.50
2023-04-29T19:18:23.167Z,1.95
2023-04-29T19:20:50.470Z,2.30
2023-04-29T19:23:17.665Z,2.10
2023-04-29T19:25:44.780Z,2.13
2023-04-29T19:28:11.993Z,2.13
2023-04-29T19:30:39.094Z,1.83
2023-04-29T19:33:06.652Z,1.80
2023-04-29T19:35:33.774Z,1.60
2023-04-29T19:38:00.896Z,2.03
2023-04-29T19:40:28.056Z,1.90
2023-04-29T19:42:55.235Z,2.20
2023-04-29T19:45:22.627Z,2.30
2023-04-29T19:47:50.094Z,1.80
2023-04-29T19:50:17.307Z,2.08
2023-04-29T19:52:44.496Z,2.28
2023-04-29T19:55:11.635Z,2.45
2023-04-29T19:57:38.819Z,2.78
2023-04-29T20:00:06.424Z,2.33
2023-04-29T20:02:33.862Z,2.58
2023-04-29T20:05:01.200Z,2.55
2023-04-29T20:07:28.350Z,2.40
2023-04-29T20:09:56.722Z,2.35
2023-04-29T20:12:23.930Z,2.38
2023-04-29T20:14:51.072Z,1.98
2023-04-29T20:17:18.297Z,2.58
2023-04-29T20:19:45.442Z,2.00
2023-04-29T20:22:13.354Z,2.47
2023-04-29T20:24:41.549Z,2.53
2023-04-29T20:27:08.828Z,2.88
2023-04-29T20:29:35.916Z,2.58
2023-04-29T20:32:03.380Z,2.70
2023-04-29T20:34:32.098Z,2.88
2023-04-29T20:36:59.499Z,2.78
2023-04-29T20:39:26.878Z,2.55
2023-04-29T20:41:56.288Z,2.75
2023-04-29T20:44:23.913Z,2.45
2023-04-29T20:46:53.024Z,2.83
2023-04-29T20:49:20.314Z,2.90
2023-04-29T20:51:49.210Z,2.50
2023-04-29T20:54:16.426Z,2.67
2023-04-29T20:56:43.554Z,2.28
2023-04-29T20:59:10.642Z,2.40
2023-04-29T21:01:38.053Z,2.58
2023-04-29T21:04:05.589Z,2.67
2023-04-29T21:06:33.457Z,2.75
2023-04-29T21:09:01.052Z,2.35
2023-04-29T21:11:28.152Z,2.75
2023-04-29T21:13:55.238Z,2.63
2023-04-29T21:16:22.485Z,2.85
2023-04-29T21:18:49.604Z,2.58
2023-04-29T21:21:16.682Z,2.92
2023-04-29T21:23:43.921Z,3.08
2023-04-29T21:26:11.176Z,2.58
2023-04-29T21:28:38.257Z,3.22
2023-04-29T21:31:05.537Z,2.53
2023-04-29T21:33:32.629Z,2.58
2023-04-29T21:35:59.850Z,2.67
2023-04-29T21:38:26.991Z,2.58
2023-04-29T21:40:54.110Z,2.45
2023-04-29T21:43:21.183Z,2.55
2023-04-29T21:45:50.131Z,2.58
2023-04-29T21:48:18.501Z,2.75
2023-04-29T21:50:45.689Z,2.95
2023-04-29T21:53:15.818Z,2.75
2023-04-29T21:55:43.780Z,3.33
2023-04-29T21:58:11.322Z,3.00
2023-04-29T22:00:41.031Z,2.88
2023-04-29T22:03:11.702Z,3.20
2023-04-29T22:05:39.011Z,2.70
2023-04-29T22:08:07.615Z,2.70
2023-04-29T22:10:35.082Z,2.60
2023-04-29T22:13:02.172Z,3.08
2023-04-29T22:15:29.805Z,2.40
2023-04-29T22:17:57.883Z,3.08
2023-04-29T22:32:23.984Z,2.83
2023-04-29T22:34:51.371Z,2.53
2023-04-29T22:37:18.679Z,2.53
2023-04-29T22:39:45.988Z,2.53
2023-04-29T22:42:13.099Z,2.80
2023-04-29T22:44:40.328Z,3.20
2023-04-29T22:47:07.519Z,2.65
2023-04-29T22:49:34.632Z,2.67
2023-04-29T22:52:01.727Z,2.45
2023-04-29T22:54:29.566Z,2.42
2023-04-29T22:56:58.154Z,2.35
2023-04-29T22:59:25.232Z,2.97
2023-04-29T23:01:52.556Z,2.58
2023-04-29T23:04:20.345Z,3.05
2023-04-29T23:06:47.539Z,2.42
2023-04-29T23:09:14.670Z,2.60
2023-04-29T23:11:41.740Z,2.97
2023-04-29T23:14:08.825Z,2.42
2023-04-29T23:16:36.013Z,2.42
2023-04-29T23:19:04.252Z,2.60
2023-04-29T23:21:32.429Z,2.67
2023-04-29T23:23:59.620Z,2.83
2023-04-29T23:26:26.734Z,3.40
2023-04-29T23:28:53.818Z,2.78
2023-04-29T23:31:21.010Z,2.85
2023-04-29T23:33:48.743Z,3.10
2023-04-29T23:36:15.853Z,3.67
2023-04-29T23:38:42.978Z,2.92
2023-04-29T23:41:10.085Z,3.10
2023-04-29T23:43:37.283Z,2.80
2023-04-29T23:46:04.519Z,2.90
2023-04-29T23:48:31.730Z,2.80
2023-04-29T23:50:59.000Z,3.53
2023-04-29T23:53:26.179Z,3.40
2023-04-29T23:55:53.327Z,3.33
2023-04-29T23:58:20.430Z,3.00
